sim
Sign-in with your pilot id or email,
or register
Callsign
Passwort

Schedule Details

Flight Number: DLH2075
Departure: Hamburg Airport (EDDH) at 16:15
Arrival: Munich Airport (EDDM) at 17:30
Route: Lufthansa Passenger Schedule. Enter filed route here before submitting Pirep.

Weather Information
Getting current METAR information for EDDH 192050Z 06006KT CAVOK 11/09 Q1021 NOSIG
Getting current METAR information for EDDM 192050Z VRB01KT CAVOK 11/10 Q1018 NOSIG

Schedule Frequency

Route Map